Seattle, Washington
Traffic Map
Current Weather Conditions
Seattle, Washington
Clear
Clear
26°
Feels Like: 26°
Wind Chill: 26° Ceiling: Unl
Heat Index: 26° Visibility: 10mi
Dew Point: 14° Wind: 9mph
Humidity: 48% Direction: 300° (WNW)
Pressure: 30.11in Gusts: 0mph
Raw Report DataKBFI 272053Z 30008KT 10SM CLR 26/14 A3011 RMK AO2 SLP195 T02560139 58006
Traffic Incident Summary
Active as of:
Severity:
Category:
InformationThere was an issue retrieving the traffic information for this location. Please try a different location or try again shortly.
Advertisements
Track Severe Weather on mobile